Time;durP1;ratioP1;P1;durP2;ratioP2;P2;SDS_P1;SDS_P2;PMS_P1;PMS_P2;Temp;Humidity;BMP_temperature;BMP_pressure;BME280_temperature;BME280_humidity;BME280_pressure;Samples;Min_cycle;Max_cycle;Signal;HPM_P1;HPM_P2
2023/07/28 00:01:15;;;;;;;2.85;1.65;;;;;;;18.54;100.00;95621.69;5036797;28;20221;-68
2023/07/28 00:03:41;;;;;;;3.95;1.77;;;;;;;18.53;100.00;95614.75;5036512;28;20218;-68
2023/07/28 00:06:09;;;;;;;2.75;1.48;;;;;;;18.82;100.00;95618.16;5036550;28;20201;-68
2023/07/28 00:08:35;;;;;;;3.65;1.30;;;;;;;18.60;100.00;95618.06;5035758;28;21155;-68
2023/07/28 00:11:02;;;;;;;4.45;1.60;;;;;;;18.74;100.00;95611.38;5036259;28;20227;-68
2023/07/28 00:13:28;;;;;;;2.97;1.58;;;;;;;18.59;100.00;95602.31;5036202;28;20220;-68
2023/07/28 00:15:55;;;;;;;2.97;1.38;;;;;;;18.59;100.00;95608.44;5036567;28;20221;-68
2023/07/28 00:18:21;;;;;;;2.38;1.80;;;;;;;18.61;100.00;95614.34;5036017;28;20201;-68
2023/07/28 00:20:48;;;;;;;2.15;1.40;;;;;;;18.39;100.00;95610.78;5036114;28;20294;-68
2023/07/28 00:23:16;;;;;;;1.83;1.23;;;;;;;18.68;100.00;95604.31;5036049;28;20208;-68
2023/07/28 00:25:42;;;;;;;2.40;1.58;;;;;;;18.40;100.00;95603.56;5036275;28;20201;-68
2023/07/28 00:28:08;;;;;;;4.18;1.83;;;;;;;18.43;100.00;95603.06;5035784;28;20205;-68
2023/07/28 00:30:35;;;;;;;3.28;1.25;;;;;;;18.42;100.00;95606.81;5036278;28;20228;-68
2023/07/28 00:33:01;;;;;;;3.05;1.67;;;;;;;18.49;100.00;95604.78;5036241;28;20198;-68
2023/07/28 00:35:28;;;;;;;3.47;1.92;;;;;;;18.46;100.00;95608.75;5036528;28;20236;-68
2023/07/28 00:37:54;;;;;;;5.55;1.83;;;;;;;18.37;100.00;95612.84;5035162;28;20201;-68
2023/07/28 00:40:23;;;;;;;3.55;1.60;;;;;;;18.67;100.00;95602.72;5036533;28;20216;-68
2023/07/28 00:42:50;;;;;;;2.03;1.30;;;;;;;18.41;100.00;95610.53;5035923;28;20764;-68
2023/07/28 00:45:17;;;;;;;5.78;1.73;;;;;;;18.36;100.00;95605.88;5036866;28;20291;-68
2023/07/28 00:47:43;;;;;;;2.63;1.50;;;;;;;18.39;100.00;95608.09;5040183;28;20212;-68
2023/07/28 00:50:11;;;;;;;1.95;1.40;;;;;;;18.49;100.00;95602.91;5039801;28;20212;-68
2023/07/28 00:52:38;;;;;;;3.08;1.50;;;;;;;18.33;100.00;95611.72;5040299;28;20205;-68
2023/07/28 00:55:06;;;;;;;3.22;1.60;;;;;;;18.38;100.00;95608.34;5040209;28;20227;-68
2023/07/28 00:57:34;;;;;;;3.65;2.03;;;;;;;18.40;100.00;95604.34;5039495;28;20201;-68
2023/07/28 01:00:01;;;;;;;3.65;1.73;;;;;;;18.10;100.00;95626.16;5039335;28;20216;-68
2023/07/28 01:02:27;;;;;;;3.33;2.08;;;;;;;18.26;100.00;95617.44;5040493;28;20205;-68
2023/07/28 01:04:54;;;;;;;3.42;2.13;;;;;;;18.20;100.00;95618.38;5039739;28;20205;-68
2023/07/28 01:07:27;;;;;;;3.90;1.80;;;;;;;18.41;100.00;95611.31;5039111;28;21053;-68
2023/07/28 01:09:57;;;;;;;1.73;1.25;;;;;;;18.38;100.00;95611.00;5039875;28;20208;-68
2023/07/28 01:12:25;;;;;;;8.07;2.72;;;;;;;18.29;100.00;95619.63;5039991;28;20223;-68
2023/07/28 01:14:53;;;;;;;4.20;1.70;;;;;;;18.21;100.00;95625.34;5039451;28;20224;-67
2023/07/28 01:17:19;;;;;;;2.13;1.58;;;;;;;17.91;100.00;95632.72;5038759;28;20205;-67
2023/07/28 01:19:46;;;;;;;3.17;1.63;;;;;;;17.98;100.00;95634.19;5040238;28;20237;-68
2023/07/28 01:22:36;;;;;;;2.83;1.42;;;;;;;18.35;100.00;95630.97;5039871;28;20232;-68
2023/07/28 01:25:13;;;;;;;3.72;2.13;;;;;;;18.27;100.00;95630.53;5039328;28;20204;-68
2023/07/28 01:27:42;;;;;;;2.28;1.40;;;;;;;18.12;100.00;95642.75;5038998;28;20220;-68
2023/07/28 01:30:10;;;;;;;2.22;1.65;;;;;;;18.14;100.00;95643.28;5039564;28;20298;-68
2023/07/28 01:32:37;;;;;;;2.88;1.35;;;;;;;18.02;100.00;95645.19;5039270;28;20201;-68
2023/07/28 01:35:04;;;;;;;3.03;1.30;;;;;;;17.97;100.00;95650.44;5038872;28;20228;-68
2023/07/28 01:37:30;;;;;;;2.63;1.40;;;;;;;17.92;100.00;95650.31;5038656;28;20673;-68
2023/07/28 01:39:58;;;;;;;5.20;2.03;;;;;;;17.74;100.00;95648.66;5038952;28;20554;-68
2023/07/28 01:42:24;;;;;;;3.08;1.45;;;;;;;17.78;100.00;95640.97;5038982;28;20229;-67
2023/07/28 01:44:52;;;;;;;2.85;1.73;;;;;;;18.00;100.00;95644.66;5039516;28;20861;-68
2023/07/28 01:47:19;;;;;;;2.22;1.58;;;;;;;17.68;100.00;95640.78;5038870;28;20213;-68
2023/07/28 01:49:45;;;;;;;3.55;1.60;;;;;;;17.59;100.00;95642.19;5038968;28;20204;-68
2023/07/28 01:52:12;;;;;;;3.28;1.52;;;;;;;17.60;100.00;95633.13;5039296;28;20235;-68
2023/07/28 01:54:38;;;;;;;2.38;1.80;;;;;;;17.52;100.00;95630.81;5038730;28;20209;-68
2023/07/28 01:57:05;;;;;;;3.00;1.65;;;;;;;17.52;100.00;95630.81;5036774;28;20224;-67
2023/07/28 01:59:32;;;;;;;2.08;1.58;;;;;;;17.56;100.00;95623.97;5040018;28;20214;-67
2023/07/28 02:01:59;;;;;;;2.70;1.50;;;;;;;17.74;100.00;95622.00;5039326;28;20593;-68
2023/07/28 02:04:26;;;;;;;3.13;1.88;;;;;;;17.46;100.00;95621.09;5038839;28;20209;-67
2023/07/28 02:06:52;;;;;;;6.20;1.58;;;;;;;17.35;100.00;95624.59;5038232;28;20201;-67
2023/07/28 02:09:19;;;;;;;2.05;1.33;;;;;;;17.31;100.00;95610.13;5038919;28;20236;-67
2023/07/28 02:11:45;;;;;;;2.88;1.63;;;;;;;17.25;100.00;95616.38;5038349;28;20258;-67
2023/07/28 02:14:12;;;;;;;2.58;1.45;;;;;;;17.22;100.00;95619.50;5038803;28;20207;-68
2023/07/28 02:16:38;;;;;;;3.17;1.48;;;;;;;17.16;100.00;95609.75;5038749;28;20229;-68
2023/07/28 02:19:06;;;;;;;2.13;1.70;;;;;;;17.30;100.00;95618.38;5037906;28;20949;-67
2023/07/28 02:21:32;;;;;;;2.75;1.20;;;;;;;17.14;100.00;95609.19;5038243;28;20247;-68
2023/07/28 02:23:59;;;;;;;1.38;1.08;;;;;;;17.06;100.00;95605.25;5038493;28;20243;-68
2023/07/28 02:26:25;;;;;;;3.53;1.35;;;;;;;17.11;100.00;95608.84;5038863;28;20205;-67
2023/07/28 02:28:52;;;;;;;2.28;1.38;;;;;;;17.20;100.00;95604.78;5037672;28;20585;-68
2023/07/28 02:31:18;;;;;;;2.83;2.13;;;;;;;17.11;100.00;95606.97;5038649;28;20591;-67
2023/07/28 02:33:45;;;;;;;3.13;2.03;;;;;;;17.11;100.00;95596.31;5038235;28;20216;-68
2023/07/28 02:36:12;;;;;;;5.68;2.33;;;;;;;17.30;100.00;95597.84;5037702;28;20248;-68
2023/07/28 02:38:39;;;;;;;2.92;1.50;;;;;;;17.04;100.00;95594.81;5037377;28;20212;-67
2023/07/28 02:41:05;;;;;;;3.40;1.67;;;;;;;17.04;100.00;95602.00;5038598;28;20236;-67
2023/07/28 02:43:32;;;;;;;3.25;1.95;;;;;;;17.02;100.00;95601.41;5038329;28;20201;-68
2023/07/28 02:45:58;;;;;;;2.03;1.30;;;;;;;17.06;100.00;95605.25;5034985;28;20197;-67
2023/07/28 02:48:25;;;;;;;4.00;2.00;;;;;;;17.08;100.00;95606.63;5037340;28;20205;-68
2023/07/28 02:50:52;;;;;;;3.47;1.73;;;;;;;17.04;100.00;95599.34;5037836;28;20229;-67
2023/07/28 02:53:20;;;;;;;2.05;1.70;;;;;;;17.13;100.00;95604.91;5037650;28;20641;-68
2023/07/28 02:55:48;;;;;;;3.05;1.70;;;;;;;17.13;100.00;95609.41;5037911;28;20903;-68
2023/07/28 02:58:14;;;;;;;2.08;1.25;;;;;;;17.07;100.00;95612.19;5037357;28;20193;-68
2023/07/28 03:00:42;;;;;;;2.70;1.50;;;;;;;17.08;100.00;95612.78;5037369;28;20225;-67
2023/07/28 03:03:11;;;;;;;4.20;1.50;;;;;;;17.08;100.00;95610.13;5038116;28;20201;-67
2023/07/28 03:05:38;;;;;;;3.35;1.50;;;;;;;16.88;100.00;95616.81;5037304;28;20229;-67
2023/07/28 03:08:05;;;;;;;2.83;1.52;;;;;;;16.92;100.00;95625.16;5036962;28;20197;-67
2023/07/28 03:10:33;;;;;;;2.55;1.52;;;;;;;17.02;100.00;95633.34;5037727;28;20328;-68
2023/07/28 03:13:00;;;;;;;2.85;1.67;;;;;;;16.83;100.00;95629.19;5037851;28;20696;-67
2023/07/28 03:15:26;;;;;;;3.97;1.52;;;;;;;16.85;100.00;95627.09;5037047;28;21208;-68
2023/07/28 03:17:54;;;;;;;7.78;1.60;;;;;;;16.83;100.00;95629.19;5036865;28;20205;-67
2023/07/28 03:20:21;;;;;;;2.08;1.50;;;;;;;16.79;100.00;95634.16;5038021;28;20259;-68
2023/07/28 03:22:47;;;;;;;2.72;1.52;;;;;;;16.71;100.00;95637.16;5037260;28;20208;-67
2023/07/28 03:25:14;;;;;;;3.30;1.70;;;;;;;16.76;100.00;95639.13;5037573;28;20228;-67
2023/07/28 03:27:42;;;;;;;3.75;1.73;;;;;;;16.94;100.00;95639.03;5036486;28;20290;-67
2023/07/28 03:30:10;;;;;;;2.25;1.48;;;;;;;16.86;100.00;95640.16;5037358;28;20204;-68
2023/07/28 03:32:37;;;;;;;4.05;2.22;;;;;;;16.81;100.00;95647.22;5036988;28;20209;-67
2023/07/28 03:35:04;;;;;;;3.28;1.40;;;;;;;16.78;100.00;95642.38;5037258;28;20197;-67
2023/07/28 03:37:31;;;;;;;3.08;1.60;;;;;;;16.76;100.00;95649.75;5036633;28;20213;-67
2023/07/28 03:39:57;;;;;;;2.53;1.33;;;;;;;16.80;100.00;95653.59;5036709;28;20208;-67
2023/07/28 03:42:24;;;;;;;6.68;2.30;;;;;;;16.70;100.00;95654.16;5037000;28;20210;-68
2023/07/28 03:44:52;;;;;;;4.85;1.90;;;;;;;16.88;100.00;95647.91;5036953;28;20213;-68
2023/07/28 03:47:19;;;;;;;3.63;1.85;;;;;;;16.58;100.00;95647.97;5036182;28;20197;-67
2023/07/28 03:49:46;;;;;;;9.73;1.58;;;;;;;16.55;100.00;95652.97;5036799;28;20205;-67
2023/07/28 03:52:12;;;;;;;2.63;1.60;;;;;;;16.65;100.00;95655.88;5036847;28;21089;-67
2023/07/28 03:54:39;;;;;;;7.55;1.75;;;;;;;16.73;100.00;95656.34;5036928;28;20209;-67
2023/07/28 03:57:06;;;;;;;2.00;1.20;;;;;;;16.81;100.00;95663.19;5035820;28;20220;-67
2023/07/28 03:59:32;;;;;;;3.30;1.88;;;;;;;16.72;100.00;95653.94;5036583;28;20216;-67
2023/07/28 04:02:00;;;;;;;5.05;1.52;;;;;;;16.98;100.00;95654.31;5037031;28;20220;-68
2023/07/28 04:04:27;;;;;;;4.38;2.22;;;;;;;16.78;100.00;95663.66;5036785;28;20201;-67
2023/07/28 04:06:53;;;;;;;4.18;1.80;;;;;;;16.77;100.00;95664.69;5036111;28;20824;-68
2023/07/28 04:09:20;;;;;;;4.25;1.63;;;;;;;16.91;100.00;95663.44;5036744;28;20252;-67
2023/07/28 04:11:47;;;;;;;2.15;1.58;;;;;;;16.82;100.00;95660.31;5036626;28;20233;-68
2023/07/28 04:14:14;;;;;;;2.65;1.60;;;;;;;16.80;100.00;95662.41;5036937;28;20197;-67
2023/07/28 04:16:40;;;;;;;3.45;1.50;;;;;;;16.81;100.00;95664.00;5036731;28;20492;-67
2023/07/28 04:19:08;;;;;;;3.53;2.20;;;;;;;16.92;100.00;95659.75;5035776;28;20201;-67
2023/07/28 04:21:35;;;;;;;1.85;1.38;;;;;;;16.81;100.00;95674.63;5035886;28;20232;-67
2023/07/28 04:24:01;;;;;;;4.30;2.35;;;;;;;16.96;100.00;95675.03;5036559;28;20205;-67
2023/07/28 04:26:28;;;;;;;2.55;1.67;;;;;;;16.91;100.00;95674.91;5036810;28;20201;-67
2023/07/28 04:28:54;;;;;;;7.55;1.70;;;;;;;17.16;100.00;95672.84;5035589;28;20596;-67
2023/07/28 04:31:21;;;;;;;4.97;1.20;;;;;;;17.28;100.00;95671.81;5036255;28;20819;-67
2023/07/28 04:33:47;;;;;;;2.30;1.40;;;;;;;17.32;100.00;95683.66;5036548;28;20213;-67
2023/07/28 04:36:15;;;;;;;3.17;1.45;;;;;;;17.64;100.00;95674.25;5035525;28;20228;-67
2023/07/28 04:38:41;;;;;;;3.70;1.85;;;;;;;17.53;100.00;95668.94;5035069;28;20217;-67
2023/07/28 04:41:08;;;;;;;3.55;1.70;;;;;;;17.55;100.00;95678.31;5036521;28;20228;-67
2023/07/28 04:43:34;;;;;;;4.88;1.80;;;;;;;17.56;100.00;95668.47;5035855;28;20201;-67
2023/07/28 04:46:01;;;;;;;4.57;1.73;;;;;;;17.52;100.00;95670.78;5036190;28;20198;-67
2023/07/28 04:48:28;;;;;;;2.50;1.60;;;;;;;17.77;100.00;95677.47;5035837;28;20212;-67
2023/07/28 04:50:54;;;;;;;3.13;1.70;;;;;;;17.63;100.00;95664.66;5035186;28;20223;-67
2023/07/28 04:53:22;;;;;;;5.45;1.95;;;;;;;17.95;100.00;95668.53;5036368;28;20205;-67
2023/07/28 04:55:49;;;;;;;5.78;2.13;;;;;;;17.90;100.00;95676.44;5036241;28;20229;-67
2023/07/28 04:58:15;;;;;;;4.85;2.28;;;;;;;17.91;100.00;95672.72;5035413;28;20201;-67
2023/07/28 05:00:41;;;;;;;3.33;1.80;;;;;;;17.93;100.00;95675.94;5036170;28;20272;-67
2023/07/28 05:03:08;;;;;;;3.42;1.90;;;;;;;17.96;100.00;95675.47;5036260;28;20251;-67
2023/07/28 05:05:35;;;;;;;3.65;1.98;;;;;;;18.03;100.00;95681.50;5036138;28;20209;-67
2023/07/28 05:08:01;;;;;;;1.42;1.05;;;;;;;18.14;100.00;95683.28;5034933;28;20209;-67
2023/07/28 05:10:29;;;;;;;3.22;1.90;;;;;;;18.33;100.00;95666.09;5036159;28;20236;-67
2023/07/28 05:12:56;;;;;;;2.75;1.45;;;;;;;18.06;100.00;95671.16;5035976;28;20932;-67
2023/07/28 05:15:23;;;;;;;3.15;1.40;;;;;;;18.14;100.00;95672.63;5036284;28;20201;-67
2023/07/28 05:17:49;;;;;;;1.33;1.20;;;;;;;18.06;100.00;95670.34;5035652;28;21049;-67
2023/07/28 05:20:17;;;;;;;3.22;1.85;;;;;;;18.17;100.00;95672.19;5035568;28;20688;-67
2023/07/28 05:22:43;;;;;;;3.40;1.60;;;;;;;18.38;100.00;95662.50;5035716;28;20693;-67
2023/07/28 05:25:10;;;;;;;1.63;1.13;;;;;;;18.33;100.00;95670.41;5036213;28;20662;-67
2023/07/28 05:27:39;;;;;;;4.93;1.83;;;;;;;18.63;100.00;95659.47;5034864;28;20638;-67
2023/07/28 05:30:07;;;;;;;4.63;1.92;;;;;;;18.72;100.00;95666.84;5035682;28;21096;-67
2023/07/28 05:32:34;;;;;;;2.67;1.50;;;;;;;18.66;100.00;95661.66;5036436;28;20696;-67
2023/07/28 05:35:00;;;;;;;2.83;1.67;;;;;;;18.78;100.00;95665.88;5039046;28;20201;-67
2023/07/28 05:37:27;;;;;;;3.25;1.60;;;;;;;18.96;100.00;95663.81;5038477;28;20216;-67
2023/07/28 05:39:53;;;;;;;2.25;1.30;;;;;;;19.18;100.00;95672.75;5039159;28;20205;-67
2023/07/28 05:42:20;;;;;;;3.15;1.60;;;;;;;19.34;100.00;95676.47;5039239;28;20744;-67
2023/07/28 05:44:48;;;;;;;1.33;1.00;;;;;;;19.59;100.00;95675.78;5038963;28;20216;-67
2023/07/28 05:47:14;;;;;;;2.92;1.50;;;;;;;19.45;100.00;95670.22;5038180;28;20203;-67
2023/07/28 05:49:40;;;;;;;2.30;1.25;;;;;;;19.66;100.00;95676.41;5039356;28;20213;-67
2023/07/28 05:52:07;;;;;;;1.45;1.17;;;;;;;19.92;100.00;95681.09;5038964;28;20221;-67
2023/07/28 05:54:34;;;;;;;2.47;1.30;;;;;;;19.89;100.00;95680.75;5039124;28;20205;-67
2023/07/28 05:57:00;;;;;;;2.30;1.58;;;;;;;19.61;100.00;95673.69;5038384;28;20262;-67
2023/07/28 05:59:27;;;;;;;2.17;1.20;;;;;;;19.93;100.00;95669.31;5039099;28;20399;-67
2023/07/28 06:01:54;;;;;;;2.53;1.65;;;;;;;20.29;100.00;95677.56;5037510;28;20247;-67
2023/07/28 06:04:21;;;;;;;2.88;1.55;;;;;;;20.27;100.00;95674.31;5038349;28;20197;-70
2023/07/28 06:06:48;;;;;;;3.22;1.60;;;;;;;20.49;100.00;95677.78;5038485;28;20328;-70
2023/07/28 06:09:14;;;;;;;3.35;1.60;;;;;;;20.61;100.00;95680.28;5038161;28;20225;-69
2023/07/28 06:11:41;;;;;;;1.80;0.90;;;;;;;20.98;100.00;95680.19;5037698;28;20233;-69
2023/07/28 06:14:07;;;;;;;2.13;1.63;;;;;;;21.18;100.00;95683.03;5036989;28;20201;-70
2023/07/28 06:16:33;;;;;;;1.05;0.90;;;;;;;20.85;100.00;95696.66;5036124;28;20705;-71
2023/07/28 06:19:01;;;;;;;2.10;0.93;;;;;;;21.30;100.00;95689.03;5037547;28;20224;-70
2023/07/28 06:21:28;;;;;;;1.98;1.48;;;;;;;21.07;100.00;95692.06;5038638;28;20225;-70
2023/07/28 06:23:54;;;;;;;2.08;1.45;;;;;;;21.39;100.00;95694.75;5038059;28;20201;-70
2023/07/28 06:26:21;;;;;;;1.17;1.10;;;;;;;21.35;100.00;95699.00;5037315;28;20213;-70
2023/07/28 06:28:47;;;;;;;1.90;1.15;;;;;;;21.63;100.00;95700.31;5037480;28;20205;-70
2023/07/28 06:31:14;;;;;;;1.92;1.30;;;;;;;21.79;100.00;95698.53;5037789;28;20713;-70
2023/07/28 06:33:40;;;;;;;1.55;0.90;;;;;;;22.06;100.00;95692.78;5037463;28;20251;-70
2023/07/28 06:36:08;;;;;;;1.58;0.90;;;;;;;22.20;100.00;95703.88;5037670;28;20197;-71
2023/07/28 06:38:35;;;;;;;1.73;1.25;;;;;;;21.95;100.00;95711.78;5036742;28;20541;-70
2023/07/28 06:41:01;;;;;;;1.27;1.15;;;;;;;21.69;100.00;95706.50;5036874;28;20216;-68
2023/07/28 06:43:28;;;;;;;2.65;1.10;;;;;;;21.88;100.00;95700.50;5036526;28;20205;-68
2023/07/28 06:45:54;;;;;;;1.63;1.00;;;;;;;21.97;100.00;95701.63;5037419;28;20729;-69
2023/07/28 06:48:21;;;;;;;0.93;0.77;;;;;;;21.87;100.00;95706.09;5036676;28;20239;-70
2023/07/28 06:50:47;;;;;;;1.52;1.02;;;;;;;22.06;100.00;95706.22;5038024;28;20231;-70
2023/07/28 06:53:15;;;;;;;1.75;0.85;;;;;;;22.14;100.00;95708.41;5038173;28;20201;-68
2023/07/28 06:55:44;;;;;;;2.88;1.35;;;;;;;22.19;100.00;95715.69;5037616;28;20201;-69
2023/07/28 06:58:10;;;;;;;1.17;0.80;;;;;;;21.73;100.00;95721.84;5036476;28;20228;-69
2023/07/28 07:00:37;;;;;;;1.23;0.88;;;;;;;21.73;100.00;95726.41;5038120;28;20228;-68
2023/07/28 07:03:03;;;;;;;3.53;1.85;;;;;;;21.78;100.00;95727.25;5036887;28;20209;-70
2023/07/28 07:05:30;;;;;;;3.83;1.38;;;;;;;21.69;100.00;95720.75;5037694;28;20212;-70
2023/07/28 07:07:57;;;;;;;4.68;1.55;;;;;;;21.86;100.00;95728.63;5037051;28;20304;-68
2023/07/28 07:10:25;;;;;;;3.17;1.75;;;;;;;22.21;100.00;95725.09;5036246;28;20705;-69
2023/07/28 07:12:51;;;;;;;4.68;1.33;;;;;;;22.06;100.00;95725.00;5036752;28;20216;-69
2023/07/28 07:15:18;;;;;;;4.35;1.10;;;;;;;22.08;100.00;95722.88;5037071;28;20205;-69
2023/07/28 07:17:44;;;;;;;1.75;1.10;;;;;;;22.31;100.00;95722.50;5036526;28;20224;-69
2023/07/28 07:20:12;;;;;;;3.17;1.15;;;;;;;22.45;100.00;95720.91;5036778;28;20201;-69
2023/07/28 07:22:38;;;;;;;3.42;1.55;;;;;;;22.32;100.00;95724.09;5035989;28;20216;-68
2023/07/28 07:25:07;;;;;;;6.55;1.38;;;;;;;22.35;100.00;95722.75;5036570;28;20202;-69
2023/07/28 07:27:34;;;;;;;1.13;0.60;;;;;;;22.48;100.00;95717.72;5035613;28;20427;-68
2023/07/28 07:30:01;;;;;;;2.13;1.05;;;;;;;22.32;100.00;95724.09;5036315;28;20212;-71
2023/07/28 07:32:28;;;;;;;2.15;1.23;;;;;;;22.49;100.00;95724.72;5037671;28;20213;-70
2023/07/28 07:34:54;;;;;;;1.48;0.85;;;;;;;22.36;100.00;95727.06;5035985;28;20800;-69
2023/07/28 07:37:21;;;;;;;2.75;1.20;;;;;;;22.56;100.00;95729.84;5035832;28;20224;-70
2023/07/28 07:39:47;;;;;;;3.75;1.08;;;;;;;22.47;100.00;95726.84;5037346;28;20205;-69
2023/07/28 07:42:14;;;;;;;2.20;1.00;;;;;;;22.57;100.00;95716.16;5036815;28;20236;-69
2023/07/28 07:44:42;;;;;;;1.85;0.70;;;;;;;22.66;100.00;95719.94;5035149;28;20204;-70
2023/07/28 07:47:16;;;;;;;2.15;1.02;;;;;;;22.96;100.00;95717.31;5035404;28;20198;-69
2023/07/28 07:49:42;;;;;;;1.65;1.10;;;;;;;22.71;100.00;95722.66;5035813;28;20661;-68
2023/07/28 07:52:09;;;;;;;2.38;1.30;;;;;;;22.74;100.00;95722.91;5036748;28;20225;-68
2023/07/28 07:54:36;;;;;;;2.72;1.10;;;;;;;22.91;100.00;95728.06;5036329;28;20205;-68
2023/07/28 07:57:02;;;;;;;3.00;1.25;;;;;;;23.07;100.00;95730.56;5035683;28;20245;-69
2023/07/28 07:59:32;;;;;;;1.48;0.73;;;;;;;23.15;100.00;95730.00;5036505;28;20201;-69
2023/07/28 08:02:02;;;;;;;1.13;0.80;;;;;;;23.18;100.00;95728.69;5035719;28;20739;-68
2023/07/28 08:04:29;;;;;;;1.52;0.88;;;;;;;23.09;100.00;95738.34;5036759;28;20244;-68
2023/07/28 08:06:55;;;;;;;3.63;1.17;;;;;;;22.83;100.00;95742.00;5035335;28;20985;-68
2023/07/28 08:09:22;;;;;;;1.63;1.05;;;;;;;23.05;100.00;95739.94;5036316;28;20212;-67
2023/07/28 08:11:49;;;;;;;1.60;0.93;;;;;;;23.21;100.00;95728.16;5036098;28;20648;-67
2023/07/28 08:14:16;;;;;;;1.48;1.13;;;;;;;23.35;100.00;95730.84;5035555;28;20202;-68
2023/07/28 08:16:43;;;;;;;1.83;0.95;;;;;;;23.21;100.00;95739.72;5035104;28;20649;-68
2023/07/28 08:19:11;;;;;;;8.85;0.77;;;;;;;23.34;100.00;95736.50;5035243;28;20216;-68
2023/07/28 08:21:38;;;;;;;1.92;1.00;;;;;;;23.36;100.00;95737.06;5035713;28;20217;-68
2023/07/28 08:24:05;;;;;;;1.25;0.80;;;;;;;23.68;100.00;95742.97;5035776;28;20990;-68
2023/07/28 08:26:31;;;;;;;1.33;0.75;;;;;;;23.48;100.00;95741.06;5036146;28;20212;-68
2023/07/28 08:28:58;;;;;;;1.20;1.00;;;;;;;23.44;100.00;95750.75;5034868;28;20213;-68
2023/07/28 08:31:24;;;;;;;1.50;1.10;;;;;;;23.46;100.00;95743.25;5036154;28;20232;-65
2023/07/28 08:33:51;;;;;;;0.65;0.63;;;;;;;23.48;97.92;95743.75;5036811;28;20204;-65
2023/07/28 08:36:19;;;;;;;2.88;1.33;;;;;;;23.78;97.44;95743.00;5035711;28;20578;-66
2023/07/28 08:38:45;;;;;;;1.35;0.80;;;;;;;23.53;98.78;95749.16;5034298;28;20236;-66
2023/07/28 08:41:13;;;;;;;2.70;1.40;;;;;;;24.01;98.52;95751.31;5035948;28;20221;-66
2023/07/28 08:43:39;;;;;;;1.75;0.82;;;;;;;23.99;96.60;95754.28;5037167;28;20205;-67
2023/07/28 08:46:06;;;;;;;0.63;0.40;;;;;;;23.73;96.53;95759.16;5034822;28;20216;-65
2023/07/28 08:48:33;;;;;;;0.93;0.73;;;;;;;23.76;96.74;95754.03;5033763;28;20197;-66
2023/07/28 08:50:59;;;;;;;1.83;0.80;;;;;;;23.83;96.20;95759.97;5035996;28;20244;-66
2023/07/28 08:53:27;;;;;;;1.17;0.90;;;;;;;24.00;96.21;95749.72;5035500;28;20219;-67
2023/07/28 08:55:54;;;;;;;1.80;1.00;;;;;;;23.77;96.65;95771.78;5034651;28;20207;-67
2023/07/28 08:58:23;;;;;;;1.17;1.00;;;;;;;23.98;96.81;95766.13;5033479;28;20248;-66
2023/07/28 09:00:50;;;;;;;1.65;0.95;;;;;;;23.68;98.62;95761.81;5034817;28;20316;-66
2023/07/28 09:03:17;;;;;;;2.10;1.02;;;;;;;23.80;99.83;95765.84;5035254;28;20201;-67
2023/07/28 09:05:46;;;;;;;2.10;1.10;;;;;;;24.13;97.71;95766.13;5034726;28;20208;-66
2023/07/28 09:08:13;;;;;;;1.95;0.98;;;;;;;24.38;96.59;95758.00;5038316;28;20201;-68
2023/07/28 09:10:45;;;;;;;2.53;1.45;;;;;;;24.63;94.87;95761.44;5038827;28;20217;-67
2023/07/28 09:13:13;;;;;;;1.25;0.80;;;;;;;24.16;96.32;95759.34;5038538;28;20216;-68
2023/07/28 09:15:40;;;;;;;2.13;1.02;;;;;;;24.23;96.20;95760.69;5038273;28;20204;-67
2023/07/28 09:18:09;;;;;;;2.38;1.00;;;;;;;24.51;94.55;95762.00;5038027;28;20600;-67
2023/07/28 09:20:36;;;;;;;1.65;1.13;;;;;;;24.47;96.56;95761.75;5037821;28;20759;-67
2023/07/28 09:23:03;;;;;;;1.08;0.70;;;;;;;24.58;96.48;95760.66;5039383;28;20575;-67
2023/07/28 09:25:30;;;;;;;2.05;0.80;;;;;;;24.74;95.52;95759.50;5039458;28;20248;-67
2023/07/28 09:27:58;;;;;;;0.40;0.40;;;;;;;24.89;94.31;95756.75;5037712;28;20584;-67
2023/07/28 09:30:26;;;;;;;2.42;0.80;;;;;;;25.10;94.34;95758.25;5037578;28;20229;-68
2023/07/28 09:32:54;;;;;;;1.13;0.80;;;;;;;25.35;93.25;95758.94;5038534;28;20572;-67
2023/07/28 09:35:21;;;;;;;1.52;0.77;;;;;;;24.90;93.95;95761.84;5039464;28;20210;-67
2023/07/28 09:37:49;;;;;;;2.38;1.23;;;;;;;25.10;95.47;95761.78;5038335;28;20228;-67
2023/07/28 09:40:18;;;;;;;2.60;1.00;;;;;;;24.93;92.11;95761.28;5039963;28;20204;-67
2023/07/28 09:42:49;;;;;;;1.80;0.73;;;;;;;24.95;91.01;95764.53;5039523;28;20607;-67
2023/07/28 09:45:18;;;;;;;1.23;0.68;;;;;;;25.04;89.55;95757.47;5040457;28;20288;-67
2023/07/28 09:47:46;;;;;;;1.35;0.90;;;;;;;24.86;91.28;95758.09;5039116;28;20220;-67
2023/07/28 09:50:16;;;;;;;2.17;1.08;;;;;;;25.14;88.40;95752.06;5039726;28;20208;-68
2023/07/28 09:52:44;;;;;;;0.85;0.60;;;;;;;24.79;89.09;95754.88;5039784;28;20720;-66
2023/07/28 09:55:13;;;;;;;2.17;0.77;;;;;;;24.86;89.95;95768.88;5040420;28;20287;-66
2023/07/28 09:57:42;;;;;;;2.13;0.90;;;;;;;24.81;90.81;95750.03;5037744;28;20232;-68
2023/07/28 10:00:11;;;;;;;0.50;0.50;;;;;;;24.93;91.10;95755.88;5039653;28;20205;-67
2023/07/28 10:02:40;;;;;;;1.10;0.80;;;;;;;24.98;91.17;95768.56;5040281;28;20205;-66
2023/07/28 10:05:08;;;;;;;2.03;1.38;;;;;;;24.99;90.17;95760.19;5038358;28;20232;-67
2023/07/28 10:07:36;;;;;;;0.82;0.50;;;;;;;25.19;88.19;95768.22;5037948;28;20904;-67
2023/07/28 10:10:06;;;;;;;2.17;0.85;;;;;;;25.30;90.38;95759.75;5038364;28;20577;-67
2023/07/28 10:12:41;;;;;;;0.60;0.60;;;;;;;25.25;87.90;95770.59;5038524;28;20215;-67
2023/07/28 10:15:08;;;;;;;0.93;0.70;;;;;;;25.11;88.82;95765.28;5038987;28;20204;-66
2023/07/28 10:17:36;;;;;;;4.32;0.73;;;;;;;24.87;87.55;95772.38;5037593;28;20233;-66
2023/07/28 10:20:08;;;;;;;2.42;1.15;;;;;;;25.14;85.83;95768.25;5037604;28;20202;-67
2023/07/28 10:22:44;;;;;;;0.57;0.55;;;;;;;25.23;84.31;95775.44;5039278;28;20845;-67
2023/07/28 10:25:11;;;;;;;1.80;1.02;;;;;;;24.86;87.15;95773.44;5039305;28;20209;-67
2023/07/28 10:27:39;;;;;;;1.38;0.70;;;;;;;24.98;86.45;95763.16;5037746;28;20598;-67
2023/07/28 10:30:12;;;;;;;0.73;0.52;;;;;;;24.90;84.60;95761.06;5038848;28;20208;-67
2023/07/28 10:32:40;;;;;;;0.73;0.68;;;;;;;25.10;85.91;95766.34;5038984;28;20936;-67
2023/07/28 10:35:10;;;;;;;0.70;0.55;;;;;;;25.36;86.80;95776.72;5038334;28;20205;-66
2023/07/28 10:37:37;;;;;;;1.95;0.57;;;;;;;24.84;87.25;95776.41;5037618;28;20197;-66
2023/07/28 10:40:29;;;;;;;1.58;0.85;;;;;;;25.76;84.78;95774.56;5038679;28;20208;-67
2023/07/28 10:42:57;;;;;;;1.02;0.63;;;;;;;25.41;85.78;95774.00;5038103;28;20209;-67
2023/07/28 10:45:25;;;;;;;0.80;0.60;;;;;;;25.13;86.52;95780.09;5038047;28;20590;-67
2023/07/28 10:47:55;;;;;;;1.23;0.85;;;;;;;25.22;86.49;95776.53;5038737;28;20205;-66
2023/07/28 10:50:23;;;;;;;1.15;0.70;;;;;;;25.64;84.75;95784.09;5038630;28;20692;-66
2023/07/28 10:52:49;;;;;;;1.10;0.73;;;;;;;25.55;85.09;95778.47;5038470;28;20205;-66
2023/07/28 10:55:17;;;;;;;1.40;0.88;;;;;;;25.34;84.40;95786.97;5038546;28;20201;-66
2023/07/28 10:57:45;;;;;;;0.90;0.55;;;;;;;25.21;84.69;95779.50;5037212;28;20220;-68
2023/07/28 11:00:14;;;;;;;2.88;0.88;;;;;;;25.34;84.51;95785.09;5039327;28;20201;-66
2023/07/28 11:02:43;;;;;;;1.75;1.00;;;;;;;25.58;84.03;95777.13;5038487;28;20212;-66
2023/07/28 11:05:14;;;;;;;0.95;0.80;;;;;;;25.70;82.33;95774.84;5038247;28;20739;-66
2023/07/28 11:07:43;;;;;;;2.15;1.00;;;;;;;25.79;84.38;95770.50;5037242;28;20205;-67
2023/07/28 11:10:11;;;;;;;1.00;0.88;;;;;;;25.77;81.09;95775.41;5037754;28;20207;-67
2023/07/28 11:12:41;;;;;;;1.70;0.88;;;;;;;25.95;80.75;95781.72;5036950;28;20251;-66
2023/07/28 11:15:10;;;;;;;1.73;0.90;;;;;;;26.13;79.17;95772.91;5035972;28;20622;-66
2023/07/28 11:17:37;;;;;;;1.48;0.88;;;;;;;25.99;78.97;95780.06;5036042;28;20250;-67
2023/07/28 11:20:07;;;;;;;3.10;0.55;;;;;;;26.00;78.18;95778.16;5036444;28;20552;-66
2023/07/28 11:22:37;;;;;;;1.02;0.57;;;;;;;26.31;77.39;95780.31;5037108;28;20205;-66
2023/07/28 11:25:10;;;;;;;2.22;0.98;;;;;;;26.28;77.86;95791.66;5036188;28;20197;-68
2023/07/28 11:27:37;;;;;;;1.60;0.77;;;;;;;26.30;76.70;95780.56;5037131;28;20235;-68